Time;durP1;ratioP1;P1;durP2;ratioP2;P2;SDS_P1;SDS_P2;PMS_P1;PMS_P2;Temp;Humidity;BMP_temperature;BMP_pressure;BME280_temperature;BME280_humidity;BME280_pressure;Samples;Min_cycle;Max_cycle;Signal;HPM_P1;HPM_P2
2022/11/11 00:00:48;;;;;;;1.00;0.70;;;;;;;15.06;100.00;100147.22;5006966;28;20033;-86
2022/11/11 00:03:14;;;;;;;3.75;1.35;;;;;;;15.07;100.00;100146.16;5009816;28;20045;-86
2022/11/11 00:05:42;;;;;;;3.70;0.98;;;;;;;15.12;100.00;100146.31;5007287;28;21962;-88
2022/11/11 00:08:08;;;;;;;3.22;0.90;;;;;;;15.14;100.00;100144.25;5020183;28;20092;-86
2022/11/11 00:10:33;;;;;;;2.97;0.90;;;;;;;15.18;100.00;100150.03;5039259;28;20033;-86
2022/11/11 00:13:00;;;;;;;2.30;0.80;;;;;;;15.04;100.00;100116.81;4994167;28;20049;-86
2022/11/11 00:15:29;;;;;;;1.30;0.77;;;;;;;15.20;100.00;100133.56;5025849;28;20037;-85
2022/11/11 00:26:10;;;;;;;2.05;0.93;;;;;;;15.19;100.00;100127.34;5018732;28;20030;-88
2022/11/11 00:28:36;;;;;;;1.92;1.08;;;;;;;15.15;100.00;100147.78;4991724;28;20041;-86
2022/11/11 00:31:12;;;;;;;1.95;0.63;;;;;;;15.10;100.00;100132.19;5006238;28;20371;-85
2022/11/11 00:33:38;;;;;;;1.35;1.02;;;;;;;15.05;100.00;100136.59;5006358;28;20041;-86
2022/11/11 00:36:05;;;;;;;3.25;1.00;;;;;;;15.01;100.00;100124.56;5006193;28;20040;-86
2022/11/11 00:38:46;;;;;;;0.95;0.80;;;;;;;15.06;100.00;100132.88;4985706;28;20037;-88
2022/11/11 00:41:14;;;;;;;1.50;0.70;;;;;;;15.10;100.00;100137.59;5024726;28;20503;-86
2022/11/11 00:43:40;;;;;;;1.17;0.70;;;;;;;15.15;100.00;100137.75;5021919;28;20029;-86
2022/11/11 00:51:38;;;;;;;3.10;1.27;;;;;;;15.04;100.00;100135.78;5000700;28;20041;-85
2022/11/11 00:54:04;;;;;;;2.08;1.02;;;;;;;15.12;100.00;100148.22;5006217;28;20022;-86
2022/11/11 00:56:30;;;;;;;2.45;1.15;;;;;;;15.13;100.00;100125.50;5026480;28;20037;-86
2022/11/11 00:58:56;;;;;;;2.92;1.15;;;;;;;15.05;100.00;100117.66;4992625;28;20120;-86
2022/11/11 01:01:21;;;;;;;2.70;1.08;;;;;;;14.97;100.00;100123.34;5027096;28;20029;-85
2022/11/11 01:03:47;;;;;;;6.20;1.95;;;;;;;14.97;100.00;100117.91;5021485;28;20174;-86
2022/11/11 01:06:13;;;;;;;2.70;0.95;;;;;;;14.92;100.00;100135.66;4989703;28;20059;-85
2022/11/11 01:08:39;;;;;;;6.10;1.45;;;;;;;14.89;100.00;100136.09;5025149;28;20032;-86
2022/11/11 01:11:16;;;;;;;4.53;1.92;;;;;;;14.97;100.00;100153.94;4982939;28;20026;-85
2022/11/11 01:13:42;;;;;;;9.60;2.00;;;;;;;14.98;100.00;100111.44;5019097;28;20099;-85
2022/11/11 01:16:28;;;;;;;3.92;1.83;;;;;;;15.08;100.00;100138.88;4992831;28;20045;-84
2022/11/11 01:18:54;;;;;;;3.22;1.20;;;;;;;15.10;100.00;100136.78;5025081;28;20155;-84
2022/11/11 01:21:21;;;;;;;6.40;1.85;;;;;;;15.01;100.00;100128.09;5024152;28;20112;-85
2022/11/11 01:23:48;;;;;;;7.70;1.77;;;;;;;14.97;100.00;100132.28;5023067;28;20076;-85
2022/11/11 01:26:21;;;;;;;6.82;1.45;;;;;;;14.88;100.00;100125.50;5017974;28;20119;-85
2022/11/11 01:28:51;;;;;;;7.75;2.20;;;;;;;14.77;100.00;100097.25;5002446;28;20318;-86
2022/11/11 01:31:19;;;;;;;4.10;1.38;;;;;;;14.85;100.00;100124.06;5039695;28;20502;-86
2022/11/11 01:33:45;;;;;;;4.50;1.45;;;;;;;14.71;100.00;100101.69;5019433;28;20045;-86
2022/11/11 01:36:13;;;;;;;7.57;2.00;;;;;;;14.73;100.00;100133.91;5007434;28;20025;-85
2022/11/11 01:38:41;;;;;;;8.30;1.73;;;;;;;14.64;100.00;100105.47;5052414;28;20120;-85
2022/11/11 01:43:54;;;;;;;6.57;1.63;;;;;;;14.64;100.00;100122.53;5006209;28;20561;-85
2022/11/11 01:46:27;;;;;;;9.73;1.60;;;;;;;14.63;100.00;100120.88;5008556;28;20064;-84
2022/11/11 01:51:51;;;;;;;8.65;2.33;;;;;;;14.68;100.00;100117.50;5019537;28;20041;-86
2022/11/11 01:54:52;;;;;;;9.07;2.72;;;;;;;14.79;100.00;100122.22;5003144;28;20025;-85
2022/11/11 01:57:33;;;;;;;7.38;2.35;;;;;;;14.80;100.00;100118.47;5022173;28;20135;-85
2022/11/11 02:00:07;;;;;;;2.95;1.00;;;;;;;14.85;100.00;100107.00;4993892;28;20045;-85
2022/11/11 02:02:38;;;;;;;6.97;2.40;;;;;;;14.88;100.00;100115.50;5005790;28;20042;-86
2022/11/11 02:07:50;;;;;;;9.70;2.70;;;;;;;14.93;100.00;100104.00;5007346;28;20033;-85
2022/11/11 02:10:21;;;;;;;4.85;2.10;;;;;;;14.98;100.00;100130.41;4997606;28;20502;-86
2022/11/11 02:15:30;;;;;;;9.18;2.40;;;;;;;14.89;100.00;100119.84;5010115;28;20041;-86
2022/11/11 02:17:56;;;;;;;6.18;2.35;;;;;;;14.79;100.00;100118.66;5006570;28;20034;-85
2022/11/11 02:20:24;;;;;;;5.63;1.80;;;;;;;14.72;100.00;100083.56;5020399;28;20387;-85
2022/11/11 02:22:56;;;;;;;6.35;2.03;;;;;;;14.87;100.00;100121.97;5004372;28;20037;-84
2022/11/11 02:25:25;;;;;;;4.95;1.52;;;;;;;14.92;100.00;100129.41;5005870;28;20073;-87
2022/11/11 02:27:53;;;;;;;7.20;1.75;;;;;;;14.93;100.00;100112.97;5002954;28;20142;-85
2022/11/11 02:30:19;;;;;;;1.77;1.10;;;;;;;14.99;100.00;100135.59;5017988;28;20111;-85
2022/11/11 02:32:48;;;;;;;6.50;2.20;;;;;;;15.06;100.00;100105.78;5001302;28;20033;-86
2022/11/11 02:35:27;;;;;;;4.82;1.60;;;;;;;15.11;100.00;100108.63;5004415;28;20061;-86
2022/11/11 02:37:52;;;;;;;8.15;2.72;;;;;;;15.08;100.00;100096.41;4984419;28;20036;-85
2022/11/11 02:40:23;;;;;;;7.72;2.15;;;;;;;15.16;100.00;100123.19;5005194;28;20029;-85
2022/11/11 02:42:52;;;;;;;7.50;1.52;;;;;;;15.10;100.00;100091.56;5002267;28;20053;-86
2022/11/11 02:45:17;;;;;;;6.97;2.30;;;;;;;15.10;100.00;100106.97;5022906;28;20677;-87
2022/11/11 02:47:43;;;;;;;9.23;2.42;;;;;;;15.13;100.00;100109.25;5022395;28;20033;-85
2022/11/11 02:50:09;;;;;;;3.88;1.60;;;;;;;15.10;100.00;100115.09;5023561;28;20575;-85
2022/11/11 02:52:34;;;;;;;10.73;2.72;;;;;;;15.04;100.00;100099.75;5017026;28;20028;-86
2022/11/11 02:55:00;;;;;;;7.35;2.17;;;;;;;15.04;100.00;100075.38;5008882;28;20047;-85
2022/11/11 02:57:27;;;;;;;9.68;2.08;;;;;;;15.10;100.00;100104.28;5022730;28;20486;-85
2022/11/11 02:59:53;;;;;;;9.27;2.58;;;;;;;15.13;100.00;100096.53;5002824;28;20033;-85
2022/11/11 03:02:18;;;;;;;8.95;2.20;;;;;;;15.15;100.00;100097.13;5020816;28;20612;-86
2022/11/11 03:04:44;;;;;;;9.45;2.97;;;;;;;15.23;100.00;100106.03;5002104;28;20030;-87
2022/11/11 03:07:10;;;;;;;7.25;2.25;;;;;;;15.23;100.00;100108.75;5016888;28;20112;-86
2022/11/11 03:09:35;;;;;;;9.88;2.80;;;;;;;15.16;100.00;100097.97;5022498;28;20371;-85
2022/11/11 03:12:01;;;;;;;10.25;2.78;;;;;;;15.21;100.00;100110.84;5022261;28;20068;-86
2022/11/11 03:14:27;;;;;;;10.15;3.15;;;;;;;15.29;100.00;100115.97;5023180;28;21561;-85
2022/11/11 03:19:37;;;;;;;9.05;2.42;;;;;;;15.22;100.00;100113.34;5023781;28;20037;-85
2022/11/11 03:22:02;;;;;;;11.13;2.67;;;;;;;15.25;100.00;100121.03;5004146;28;20040;-85
2022/11/11 03:27:13;;;;;;;9.90;2.53;;;;;;;15.23;100.00;100115.00;5010358;28;20051;-85
2022/11/11 03:29:39;;;;;;;12.18;2.85;;;;;;;15.15;100.00;100091.72;5011858;28;20113;-85
2022/11/11 03:32:06;;;;;;;9.05;2.42;;;;;;;15.24;100.00;100110.41;5021801;28;20033;-85
2022/11/11 03:34:31;;;;;;;5.60;2.40;;;;;;;15.26;100.00;100119.97;5028249;28;20029;-85
2022/11/11 03:39:41;;;;;;;16.92;2.80;;;;;;;15.25;100.00;100128.31;5021260;28;20494;-85
2022/11/11 03:42:07;;;;;;;7.88;1.73;;;;;;;15.21;100.00;100121.69;5022439;28;20026;-85
2022/11/11 03:44:32;;;;;;;8.38;1.83;;;;;;;15.21;100.00;100119.78;5000073;28;20116;-85
2022/11/11 03:46:58;;;;;;;7.35;2.30;;;;;;;15.06;100.00;100089.53;5023606;28;20079;-84
2022/11/11 03:49:24;;;;;;;9.25;2.22;;;;;;;15.06;100.00;100097.66;5010820;28;20026;-87
2022/11/11 03:51:49;;;;;;;576.00;77.38;;;;;;;15.20;100.00;100120.03;5010556;28;20083;-85
2022/11/11 03:54:15;;;;;;;145.35;51.90;;;;;;;15.16;100.00;100101.53;5023428;28;20056;-85
2022/11/11 03:56:40;;;;;;;64.25;20.02;;;;;;;15.16;100.00;100123.19;4990775;28;20038;-86
2022/11/11 03:59:06;;;;;;;8.45;2.22;;;;;;;15.17;100.00;100115.88;5018500;28;20542;-87
2022/11/11 04:12:29;;;;;;;7.25;1.58;;;;;;;15.13;100.00;100098.41;5020496;28;20022;-85
2022/11/11 04:17:39;;;;;;;10.18;2.65;;;;;;;15.07;100.00;100104.72;5007862;28;20025;-85
2022/11/11 04:22:52;;;;;;;12.15;2.25;;;;;;;15.12;100.00;100100.28;5025056;28;20029;-85
2022/11/11 04:30:46;;;;;;;0.40;0.40;;;;;;;15.17;100.00;100122.13;5022947;28;20025;-85
2022/11/11 04:33:12;;;;;;;0.30;0.30;;;;;;;15.21;100.00;100116.25;4988034;28;20033;-85
2022/11/11 04:35:37;;;;;;;0.30;0.30;;;;;;;15.16;100.00;100108.78;5004993;28;20907;-85
2022/11/11 04:41:02;;;;;;;5.53;2.17;;;;;;;15.20;100.00;100120.03;5007898;28;20403;-87
2022/11/11 04:43:29;;;;;;;0.63;0.60;;;;;;;15.24;100.00;100121.22;5003234;28;20037;-85
2022/11/11 04:46:00;;;;;;;2.15;0.77;;;;;;;15.15;100.00;100113.38;4994646;28;20033;-85
2022/11/11 04:48:27;;;;;;;0.30;0.30;;;;;;;15.22;100.00;100097.09;4991694;28;20025;-88
2022/11/11 04:50:53;;;;;;;0.63;0.63;;;;;;;15.27;100.00;100131.63;5017502;28;20034;-85
2022/11/11 04:53:18;;;;;;;0.40;0.40;;;;;;;15.25;100.00;100129.16;5003939;28;20095;-85
2022/11/11 04:58:33;;;;;;;2.47;0.93;;;;;;;15.29;100.00;100137.66;5011603;28;20444;-84
2022/11/11 05:00:59;;;;;;;2.25;0.90;;;;;;;15.18;100.00;100123.78;5025831;28;20060;-84
2022/11/11 05:03:25;;;;;;;2.72;1.05;;;;;;;15.18;100.00;100128.38;5020317;28;20072;-85
2022/11/11 05:08:57;;;;;;;0.98;0.70;;;;;;;14.98;100.00;100074.41;5002373;28;20158;-84
2022/11/11 05:11:29;;;;;;;4.15;1.20;;;;;;;14.93;100.00;100131.09;5010554;28;20037;-84
2022/11/11 05:22:21;;;;;;;3.70;1.20;;;;;;;15.17;100.00;100145.69;5019956;28;20030;-84
2022/11/11 05:27:30;;;;;;;1.17;0.70;;;;;;;15.17;100.00;100161.94;5022693;28;20066;-84
2022/11/11 05:29:56;;;;;;;1.40;0.80;;;;;;;15.18;100.00;100160.88;4988845;28;20040;-84
2022/11/11 05:32:22;;;;;;;2.72;1.02;;;;;;;15.26;100.00;100166.00;5021805;28;20032;-84
2022/11/11 05:34:48;;;;;;;1.40;1.08;;;;;;;15.26;100.00;100163.28;5017885;28;20029;-84
2022/11/11 05:37:15;;;;;;;2.05;1.00;;;;;;;15.31;100.00;100155.34;5007768;28;20087;-86
2022/11/11 05:39:43;;;;;;;3.00;0.90;;;;;;;15.31;100.00;100159.94;5002241;28;20292;-84
2022/11/11 05:42:09;;;;;;;3.13;0.88;;;;;;;15.38;100.00;100160.72;5005303;28;20033;-84
2022/11/11 05:44:35;;;;;;;2.55;1.00;;;;;;;15.34;100.00;100170.31;5000725;28;20817;-84
2022/11/11 05:47:01;;;;;;;2.25;1.05;;;;;;;15.34;100.00;100175.72;5009894;28;20075;-83
2022/11/11 05:49:27;;;;;;;2.72;1.00;;;;;;;15.29;100.00;100189.94;5019879;28;20108;-88
2022/11/11 05:51:54;;;;;;;1.52;0.63;;;;;;;15.31;100.00;100198.69;5004894;28;20064;-84
2022/11/11 05:54:20;;;;;;;0.65;0.40;;;;;;;15.29;100.00;100200.75;5024694;28;20021;-83
2022/11/11 05:56:46;;;;;;;0.30;0.30;;;;;;;15.28;100.00;100211.84;4983556;28;20486;-84
2022/11/11 05:59:12;;;;;;;1.45;0.80;;;;;;;15.14;100.00;100187.56;4991234;28;20029;-86
2022/11/11 06:01:38;;;;;;;1.20;0.75;;;;;;;15.28;100.00;100211.84;5017070;28;20021;-83
2022/11/11 06:04:04;;;;;;;0.93;0.68;;;;;;;15.25;100.00;100204.97;5004334;28;20059;-85
2022/11/11 06:06:31;;;;;;;1.73;0.73;;;;;;;15.27;100.00;100202.03;5016489;28;20026;-85
2022/11/11 06:08:57;;;;;;;1.98;0.80;;;;;;;15.27;100.00;100202.88;5024505;28;20526;-86
2022/11/11 06:11:23;;;;;;;1.52;0.73;;;;;;;15.33;100.00;100207.41;5007965;28;20116;-84
2022/11/11 06:13:48;;;;;;;1.08;0.73;;;;;;;15.26;100.00;100205.81;5016904;28;20042;-86
2022/11/11 06:16:17;;;;;;;0.85;0.60;;;;;;;15.24;100.00;100214.16;5010183;28;20044;-85
2022/11/11 06:18:43;;;;;;;1.17;0.60;;;;;;;15.29;100.00;100227.84;5022105;28;20527;-84
2022/11/11 06:21:08;;;;;;;0.63;0.63;;;;;;;15.24;100.00;100226.84;5021210;28;20120;-84
2022/11/11 06:23:39;;;;;;;0.95;0.70;;;;;;;15.23;100.00;100236.88;4990321;28;20051;-84
2022/11/11 06:26:13;;;;;;;1.08;0.80;;;;;;;15.30;100.00;100251.19;5019425;28;20056;-85
2022/11/11 06:28:49;;;;;;;0.75;0.68;;;;;;;15.29;100.00;100248.69;5023309;28;20029;-84
2022/11/11 06:31:17;;;;;;;1.45;0.73;;;;;;;15.25;100.00;100242.91;5008312;28;20025;-85
2022/11/11 06:33:43;;;;;;;1.38;0.80;;;;;;;15.27;100.00;100248.06;5004474;28;20426;-84
2022/11/11 06:36:12;;;;;;;1.17;0.70;;;;;;;15.29;100.00;100254.94;5023129;28;20464;-83
2022/11/11 06:38:39;;;;;;;0.98;0.57;;;;;;;15.29;100.00;100238.69;5026753;28;20022;-84
2022/11/11 06:41:05;;;;;;;0.68;0.50;;;;;;;15.28;100.00;100250.59;5005368;28;20091;-83
2022/11/11 06:43:31;;;;;;;0.70;0.68;;;;;;;15.20;100.00;100225.66;5021771;28;20063;-84
2022/11/11 06:45:57;;;;;;;0.55;0.50;;;;;;;15.32;100.00;100249.09;5016167;28;20499;-83
2022/11/11 06:48:27;;;;;;;2.05;1.05;;;;;;;15.31;100.00;100230.34;4990758;28;20099;-84
2022/11/11 06:50:54;;;;;;;1.08;0.60;;;;;;;15.35;100.00;100247.84;4992508;28;20063;-84
2022/11/11 06:53:21;;;;;;;1.42;0.90;;;;;;;15.31;100.00;100252.84;5002386;28;20033;-84
2022/11/11 06:55:47;;;;;;;1.65;0.85;;;;;;;15.31;100.00;100241.19;5010122;28;20484;-84
2022/11/11 06:58:17;;;;;;;0.95;0.60;;;;;;;15.37;100.00;100260.13;5024249;28;20061;-85
2022/11/11 07:00:44;;;;;;;1.67;0.90;;;;;;;15.28;100.00;100245.16;5019756;28;20116;-84
2022/11/11 07:03:12;;;;;;;1.00;0.80;;;;;;;15.36;100.00;100260.31;5018455;28;20129;-83
2022/11/11 07:05:38;;;;;;;1.05;0.70;;;;;;;15.28;100.00;100247.03;4988184;28;20124;-84
2022/11/11 07:08:05;;;;;;;0.77;0.70;;;;;;;15.34;100.00;100238.03;5002860;28;20070;-84
2022/11/11 07:10:33;;;;;;;1.92;1.10;;;;;;;15.33;100.00;100237.22;5020519;28;20060;-84
2022/11/11 07:13:04;;;;;;;0.95;0.75;;;;;;;15.35;100.00;100251.38;5031154;28;20041;-84
2022/11/11 07:15:30;;;;;;;1.08;0.60;;;;;;;15.34;100.00;100240.75;5041250;28;20159;-85
2022/11/11 07:17:56;;;;;;;0.98;0.63;;;;;;;15.35;100.00;100245.97;5016328;28;20029;-85
2022/11/11 07:20:21;;;;;;;0.50;0.50;;;;;;;15.34;100.00;100238.84;4997288;28;20021;-84
2022/11/11 07:22:47;;;;;;;0.50;0.50;;;;;;;15.34;100.00;100238.03;4993361;28;20029;-84
2022/11/11 07:25:13;;;;;;;1.15;0.73;;;;;;;15.31;100.00;100247.44;5014990;28;20119;-82
2022/11/11 07:27:39;;;;;;;1.15;0.80;;;;;;;15.22;100.00;100243.34;4997909;28;20036;-83
2022/11/11 07:30:05;;;;;;;1.20;0.60;;;;;;;15.31;100.00;100246.59;5013980;28;20120;-84
2022/11/11 07:32:31;;;;;;;0.93;0.73;;;;;;;15.29;100.00;100246.00;5002577;28;20097;-84
2022/11/11 07:34:57;;;;;;;1.52;0.73;;;;;;;15.32;100.00;100237.41;5015175;28;20086;-84
2022/11/11 07:37:22;;;;;;;0.50;0.50;;;;;;;15.35;100.00;100247.84;5000980;28;20029;-85
2022/11/11 07:39:48;;;;;;;0.75;0.60;;;;;;;15.34;100.00;100246.16;5023834;28;20176;-83
2022/11/11 07:42:14;;;;;;;3.63;1.02;;;;;;;15.33;100.00;100244.50;4991296;28;20116;-85
2022/11/11 07:44:43;;;;;;;0.60;0.60;;;;;;;15.21;100.00;100230.00;5019838;28;20041;-84
2022/11/11 07:47:09;;;;;;;1.48;0.60;;;;;;;15.08;100.00;100220.94;5010141;28;20087;-84
2022/11/11 07:49:35;;;;;;;0.75;0.52;;;;;;;15.29;100.00;100241.41;5024954;28;20038;-84
2022/11/11 07:52:00;;;;;;;0.43;0.43;;;;;;;15.25;100.00;100245.59;5014799;28;20446;-84
2022/11/11 07:54:27;;;;;;;0.38;0.38;;;;;;;15.07;100.00;100237.41;4995453;28;20072;-85
2022/11/11 07:56:53;;;;;;;0.90;0.70;;;;;;;15.09;100.00;100229.88;5011229;28;20041;-84
2022/11/11 07:59:19;;;;;;;0.40;0.40;;;;;;;15.25;100.00;100252.91;5021892;28;20112;-84
2022/11/11 08:01:44;;;;;;;0.38;0.38;;;;;;;15.18;100.00;100269.19;5026396;28;20029;-83
2022/11/11 08:04:10;;;;;;;0.30;0.30;;;;;;;15.15;100.00;100265.03;5017667;28;20060;-86
2022/11/11 08:06:35;;;;;;;0.20;0.20;;;;;;;15.11;100.00;100263.81;5028056;28;20434;-83
2022/11/11 08:09:01;;;;;;;0.30;0.30;;;;;;;15.08;100.00;100285.06;5021043;28;20417;-86
2022/11/11 08:14:13;;;;;;;0.30;0.30;;;;;;;15.01;100.00;100281.59;5003322;28;20150;-84
2022/11/11 08:16:39;;;;;;;0.20;0.20;;;;;;;15.01;100.00;100268.06;5019276;28;20042;-83
2022/11/11 08:19:05;;;;;;;0.30;0.30;;;;;;;15.08;100.00;100260.69;5053083;28;20038;-84
2022/11/11 08:21:30;;;;;;;0.25;0.25;;;;;;;15.16;100.00;100265.84;5010443;28;20033;-86
2022/11/11 08:23:56;;;;;;;0.30;0.30;;;;;;;15.26;100.00;100268.94;5035110;28;21348;-83
2022/11/11 08:26:22;;;;;;;0.30;0.30;;;;;;;15.37;100.00;100276.38;5006114;28;20594;-83
2022/11/11 08:28:50;;;;;;;0.30;0.30;;;;;;;15.37;100.00;100259.25;5025641;28;20026;-83
2022/11/11 08:31:15;;;;;;;0.30;0.30;;;;;;;15.53;100.00;100253.31;5018928;28;20383;-84
2022/11/11 08:33:41;;;;;;;0.30;0.30;;;;;;;15.46;100.00;100270.69;5016706;28;20468;-84
2022/11/11 08:36:09;;;;;;;0.30;0.30;;;;;;;15.57;100.00;100269.97;4984652;28;20456;-83
2022/11/11 08:38:36;;;;;;;0.40;0.40;;;;;;;15.82;100.00;100273.53;4988214;28;20033;-84
2022/11/11 08:41:03;;;;;;;0.40;0.40;;;;;;;16.12;100.00;100256.56;4999893;28;20041;-84
2022/11/11 08:43:31;;;;;;;0.38;0.38;;;;;;;16.33;99.72;100266.16;5022112;28;20025;-87
2022/11/11 08:46:02;;;;;;;0.40;0.40;;;;;;;16.69;97.43;100280.75;5003708;28;20041;-84
2022/11/11 08:48:29;;;;;;;0.30;0.30;;;;;;;16.58;97.58;100274.19;5035660;28;20025;-85
2022/11/11 08:50:55;;;;;;;0.40;0.40;;;;;;;16.41;97.98;100262.31;5020883;28;20065;-84
2022/11/11 08:53:21;;;;;;;0.30;0.30;;;;;;;16.46;98.08;100287.72;5007301;28;21821;-84
2022/11/11 08:55:47;;;;;;;0.40;0.40;;;;;;;16.42;98.48;100281.06;5005880;28;20041;-84
2022/11/11 08:58:13;;;;;;;0.30;0.30;;;;;;;16.42;98.29;100274.81;5009616;28;20037;-84
2022/11/11 09:00:38;;;;;;;0.40;0.40;;;;;;;16.42;98.61;100286.50;5018430;28;20087;-84
2022/11/11 09:03:06;;;;;;;0.38;0.38;;;;;;;16.29;99.05;100286.63;5003306;28;20033;-85
2022/11/11 09:05:33;;;;;;;0.40;0.40;;;;;;;16.23;99.89;100291.09;5021151;28;20033;-86
2022/11/11 09:08:05;;;;;;;0.35;0.35;;;;;;;16.33;99.42;100303.31;5002045;28;20499;-86
2022/11/11 09:10:31;;;;;;;1.70;0.93;;;;;;;16.44;98.46;100294.41;5003132;28;20036;-84
2022/11/11 09:12:57;;;;;;;2.40;1.50;;;;;;;16.58;97.62;100300.53;4988301;28;20045;-84
2022/11/11 09:15:23;;;;;;;6.13;1.70;;;;;;;16.54;97.91;100302.88;5005186;28;20044;-85
2022/11/11 09:17:49;;;;;;;3.35;1.27;;;;;;;16.43;98.38;100309.03;5004963;28;20038;-84
2022/11/11 09:20:23;;;;;;;3.97;1.33;;;;;;;16.33;99.32;100316.88;5023092;28;20033;-86
2022/11/11 09:22:49;;;;;;;2.58;1.30;;;;;;;16.21;100.00;100322.19;5021779;28;20117;-85
2022/11/11 09:25:15;;;;;;;2.55;1.13;;;;;;;16.17;100.00;100316.41;4989119;28;20034;-85
2022/11/11 09:27:42;;;;;;;2.10;1.08;;;;;;;16.13;100.00;100326.03;4997244;28;20132;-85
2022/11/11 09:30:09;;;;;;;2.33;1.20;;;;;;;16.29;100.00;100307.50;5020319;28;20041;-84
2022/11/11 09:32:35;;;;;;;2.70;1.25;;;;;;;16.71;98.03;100322.06;5004310;28;20037;-84
2022/11/11 09:35:02;;;;;;;5.40;1.08;;;;;;;16.79;96.72;100308.22;5002555;28;20475;-85
2022/11/11 09:37:28;;;;;;;2.35;1.00;;;;;;;16.78;97.02;100336.44;4986874;28;20029;-85
2022/11/11 09:39:55;;;;;;;2.55;1.30;;;;;;;16.66;97.78;100349.91;4994248;28;20510;-84
2022/11/11 09:42:39;;;;;;;4.63;1.00;;;;;;;16.63;97.90;100325.09;5021189;28;20037;-85
2022/11/11 09:45:29;;;;;;;2.13;0.68;;;;;;;16.90;96.70;100347.38;5003495;28;20060;-86
2022/11/11 09:48:31;;;;;;;3.35;1.50;;;;;;;17.07;95.63;100358.44;5001578;28;20054;-84
2022/11/11 09:50:58;;;;;;;0.52;0.52;;;;;;;16.95;95.83;100360.25;5052908;28;20072;-80
2022/11/11 09:53:33;;;;;;;0.30;0.30;;;;;;;16.98;96.04;100349.75;4995367;28;20034;-87
2022/11/11 09:56:11;;;;;;;0.40;0.40;;;;;;;17.15;94.92;100355.41;5007043;28;20111;-87
2022/11/11 09:58:45;;;;;;;0.30;0.30;;;;;;;17.35;93.61;100361.41;5025790;28;20488;-87
2022/11/11 10:01:18;;;;;;;0.40;0.40;;;;;;;17.31;94.37;100365.66;5012691;28;20047;-87
2022/11/11 10:04:19;;;;;;;0.30;0.30;;;;;;;17.19;94.88;100370.19;5045167;28;20459;-88
2022/11/11 10:06:47;;;;;;;0.38;0.38;;;;;;;17.30;94.68;100379.44;5033774;28;20055;-88
2022/11/11 10:09:37;;;;;;;0.30;0.30;;;;;;;17.55;92.99;100377.44;5021999;28;20079;-88
2022/11/11 10:12:14;;;;;;;0.32;0.32;;;;;;;17.34;93.79;100370.63;5007750;28;20105;-86
2022/11/11 10:14:44;;;;;;;0.30;0.30;;;;;;;17.19;94.82;100394.63;5011779;28;20037;-88
2022/11/11 10:17:25;;;;;;;0.40;0.40;;;;;;;17.20;95.26;100385.44;5011032;28;20041;-87
2022/11/11 10:20:15;;;;;;;0.30;0.30;;;;;;;17.22;94.96;100385.22;5053072;28;20033;-89
2022/11/11 10:22:42;;;;;;;0.30;0.30;;;;;;;17.01;96.52;100386.50;5011686;28;20043;-88
2022/11/11 10:25:19;;;;;;;0.30;0.30;;;;;;;16.89;97.18;100387.28;5027901;28;20042;-88
2022/11/11 10:27:47;;;;;;;0.30;0.30;;;;;;;16.86;96.76;100367.91;5030493;28;20060;-88
2022/11/11 10:30:18;;;;;;;0.30;0.30;;;;;;;17.11;96.47;100408.53;5030669;28;20034;-89
2022/11/11 10:32:45;;;;;;;0.30;0.30;;;;;;;17.84;92.67;100399.44;5007682;28;20121;-87
2022/11/11 10:35:29;;;;;;;0.30;0.30;;;;;;;17.96;90.37;100389.38;5031742;28;20029;-86
2022/11/11 10:38:33;;;;;;;0.30;0.30;;;;;;;18.00;90.02;100416.97;5015609;28;20096;-88
2022/11/11 10:41:23;;;;;;;0.40;0.40;;;;;;;17.99;89.84;100383.50;5031399;28;20056;-89
2022/11/11 10:43:48;;;;;;;0.30;0.30;;;;;;;17.58;91.67;100381.59;5014326;28;20471;-88
2022/11/11 10:46:24;;;;;;;0.30;0.30;;;;;;;17.52;92.21;100396.94;5014900;28;20044;-87
2022/11/11 10:49:09;;;;;;;0.40;0.40;;;;;;;17.27;94.73;100412.53;5041767;28;20037;-87
2022/11/11 10:52:19;;;;;;;0.50;0.50;;;;;;;17.07;96.15;100404.63;5015637;28;20029;-87
2022/11/11 10:55:14;;;;;;;0.30;0.30;;;;;;;17.22;95.90;100420.53;5030852;28;20029;-87
2022/11/11 10:57:45;;;;;;;0.40;0.40;;;;;;;17.30;95.22;100410.16;5015543;28;20045;-88
2022/11/11 11:00:12;;;;;;;0.40;0.40;;;;;;;17.28;95.10;100414.16;5008888;28;20033;-87
2022/11/11 11:02:55;;;;;;;0.57;0.50;;;;;;;17.73;92.75;100413.78;5013598;28;20033;-87
2022/11/11 11:05:41;;;;;;;8.77;8.40;;;;;;;18.79;85.93;100427.59;5028031;28;20029;-88
2022/11/11 11:08:11;;;;;;;0.50;0.50;;;;;;;20.02;78.98;100428.16;4999682;28;20483;-87
2022/11/11 11:10:44;;;;;;;1.17;0.80;;;;;;;20.28;77.19;100437.59;5030971;28;20041;-88
2022/11/11 11:13:16;;;;;;;0.75;0.65;;;;;;;19.71;79.36;100435.81;5032760;28;20042;-87
2022/11/11 11:15:47;;;;;;;0.45;0.45;;;;;;;19.00;82.24;100416.09;5005717;28;20064;-88
2022/11/11 11:18:14;;;;;;;0.60;0.50;;;;;;;18.52;85.94;100448.97;5041287;28;20502;-87
2022/11/11 11:20:59;;;;;;;1.35;0.70;;;;;;;18.22;88.37;100430.84;5015341;28;20029;-90
2022/11/11 11:23:39;;;;;;;0.40;0.40;;;;;;;18.33;88.28;100454.53;5030109;28;20091;-87
2022/11/11 11:26:07;;;;;;;0.98;0.52;;;;;;;18.21;89.11;100445.53;5014885;28;20037;-89
2022/11/11 11:28:33;;;;;;;0.60;0.60;;;;;;;18.07;89.81;100452.22;4996868;28;20056;-88
2022/11/11 11:31:06;;;;;;;1.30;0.60;;;;;;;18.26;88.89;100448.38;5015282;28;20032;-88
2022/11/11 11:33:52;;;;;;;0.60;0.60;;;;;;;18.39;88.04;100448.16;5013553;28;20041;-88
2022/11/11 11:36:18;;;;;;;0.40;0.40;;;;;;;18.40;88.54;100459.88;4997663;28;20146;-86
2022/11/11 11:38:49;;;;;;;5.72;5.53;;;;;;;18.42;88.80;100461.28;4998632;28;20060;-87
2022/11/11 11:41:15;;;;;;;3.17;1.10;;;;;;;18.15;88.31;100435.56;5032492;28;20057;-87
2022/11/11 11:43:46;;;;;;;1.48;0.80;;;;;;;18.12;89.68;100468.69;5014272;28;20037;-87
2022/11/11 11:46:26;;;;;;;1.85;1.30;;;;;;;17.77;91.90;100472.91;5014456;28;20042;-87
2022/11/11 11:49:07;;;;;;;1.73;0.80;;;;;;;17.45;93.79;100477.72;5031097;28;20040;-88
2022/11/11 11:51:54;;;;;;;1.60;0.60;;;;;;;17.43;94.98;100495.31;5029799;28;20041;-88
2022/11/11 11:54:38;;;;;;;1.73;0.93;;;;;;;17.27;95.60;100481.28;5014724;28;20041;-87
2022/11/11 11:57:19;;;;;;;1.15;0.73;;;;;;;17.38;95.70;100492.44;5007109;28;20049;-87
2022/11/11 11:59:52;;;;;;;0.50;0.50;;;;;;;17.35;96.44;100499.16;4995992;28;20072;-87
2022/11/11 12:02:18;;;;;;;1.17;0.80;;;;;;;17.28;97.02;100510.13;5013939;28;20048;-87
2022/11/11 12:05:02;;;;;;;0.60;0.60;;;;;;;17.10;98.20;100494.63;5030366;28;20391;-87
2022/11/11 12:07:50;;;;;;;0.70;0.50;;;;;;;16.97;99.08;100488.53;5012271;28;20041;-87
2022/11/11 12:10:27;;;;;;;1.83;0.70;;;;;;;17.01;99.35;100515.00;5028694;28;20039;-86
2022/11/11 12:12:56;;;;;;;1.10;0.63;;;;;;;16.71;100.00;100491.22;5012528;28;20028;-87
2022/11/11 12:15:27;;;;;;;2.45;0.77;;;;;;;16.69;100.00;100534.03;5010206;28;20039;-87
2022/11/11 12:17:56;;;;;;;0.93;0.60;;;;;;;16.47;100.00;100549.06;5014899;28;20029;-87
2022/11/11 12:20:37;;;;;;;0.77;0.60;;;;;;;16.29;100.00;100546.25;5014302;28;20033;-87
2022/11/11 12:23:06;;;;;;;1.85;0.70;;;;;;;16.23;100.00;100554.22;5023473;28;20498;-87
2022/11/11 12:25:46;;;;;;;0.93;0.70;;;;;;;16.09;100.00;100565.34;5012944;28;20473;-87
2022/11/11 12:28:20;;;;;;;1.25;0.60;;;;;;;15.93;100.00;100558.53;5029265;28;20033;-85
2022/11/11 12:30:54;;;;;;;2.00;1.00;;;;;;;15.73;100.00;100569.50;5018464;28;20040;-85
2022/11/11 12:33:39;;;;;;;0.80;0.60;;;;;;;15.58;100.00;100559.69;4998469;28;20038;-84
2022/11/11 12:36:14;;;;;;;1.75;0.73;;;;;;;15.47;100.00;100564.97;5025966;28;20068;-85
2022/11/11 12:38:54;;;;;;;0.80;0.70;;;;;;;15.33;100.00;100575.81;5029319;28;20029;-84
2022/11/11 12:41:47;;;;;;;1.35;0.82;;;;;;;15.27;100.00;100582.09;5013601;28;20037;-85
2022/11/11 12:44:13;;;;;;;1.33;0.80;;;;;;;15.13;100.00;100578.56;5012535;28;20044;-85
2022/11/11 12:46:50;;;;;;;0.88;0.60;;;;;;;14.99;100.00;100582.31;5012864;28;20039;-84
2022/11/11 12:49:43;;;;;;;1.35;0.75;;;;;;;15.05;100.00;100603.13;5012748;28;20033;-83